Latest Weather Observations for Milingimbi

IDD60801

Issued at 9:31 am CST Monday 8 February 2016 (issued every 30 minutes, with the page automatically refreshed every 10 minutes)

About weather observations | Map of weather stations | Latest weather observations for NT | Other Formats
Station Details ID: 014404 Name: MILINGIMBI AIRPORT Lat: -12.09 Lon: 134.89 Height: 15.0 m
Data from the previous 72 hours. | See also: Recent months at Milingimbi
Date/Time
CST
Temp
°C
App
Temp
°C
Dew
Point
Rel
Hum
%
Delta-T
°C
Wind Press
QNH
hPa
Press
MSL
hPa
Rain
since 9 am
mm
Dir
 
Spd
km/h
Gust
km/h
Spd
kts
Gust
kts
08/09:30am 31.4 34.9 24.8 68 4.6 W 15 20 8 11 1009.2 - 0.0
08/09:00am 30.8 35.0 25.4 73 3.8 W 13 19 7 10 1009.2 1009.1 0.0
08/08:30am 29.9 34.1 25.9 79 2.8 W 15 20 8 11 1009.1 - 0.0
08/08:00am 28.8 33.4 25.4 82 2.4 W 11 17 6 9 1009.1 - 0.0
08/07:30am 27.6 33.4 26.0 91 1.1 WNW 7 11 4 6 1008.8 - 0.0
08/07:00am 27.0 34.0 25.8 93 0.8 CALM 0 0 0 0 1008.3 - 0.0
08/06:30am 26.8 32.9 25.6 93 0.8 WNW 4 6 2 3 1008.0 - 0.0
08/06:00am 26.7 32.3 25.5 93 0.8 NW 6 7 3 4 1007.9 1007.8 0.0
08/05:30am 26.9 33.8 25.7 93 0.8 CALM 0 0 0 0 1007.8 - 0.0
08/05:00am 26.9 33.7 25.5 92 1.0 CALM 0 0 0 0 1007.8 - 0.0
08/04:30am 26.8 33.5 25.4 92 1.0 CALM 0 0 0 0 1007.8 - 0.0
08/04:00am 27.0 33.7 25.4 91 1.1 CALM 0 0 0 0 1007.8 - 0.0
08/03:30am 27.3 34.2 25.7 91 1.1 CALM 0 0 0 0 1008.0 - 0.0
08/03:00am 27.4 34.2 25.6 90 1.3 CALM 0 0 0 0 1008.1 1008.0 0.0
08/02:30am 27.5 34.4 25.7 90 1.3 CALM 0 0 0 0 1008.3 - 0.0
08/02:00am 27.5 34.3 25.5 89 1.4 CALM 0 0 0 0 1008.5 - 0.0
08/01:30am 27.4 32.8 25.4 89 1.4 SSE 7 9 4 5 1008.8 - 0.0
08/01:00am 27.7 34.5 25.5 88 1.5 CALM 0 0 0 0 1009.0 - 0.0
08/12:30am 28.1 34.7 25.3 85 2.0 CALM 0 0 0 0 1009.1 - 0.0
08/12:00am 28.7 33.8 25.5 83 2.3 W 9 13 5 7 1009.2 1009.1 0.0
 
Date/Time
CST
Temp
°C
App
Temp
°C
Dew
Point
Rel
Hum
%
Delta-T
°C
Wind Press
QNH
hPa
Press
MSL
hPa
Rain
since 9 am
mm
Dir
 
Spd
km/h
Gust
km/h
Spd
kts
Gust
kts
07/11:30pm 28.8 33.8 25.4 82 2.4 NW 9 13 5 7 1009.2 - 0.0
07/11:00pm 28.9 33.2 24.9 79 2.8 NW 11 17 6 9 1009.3 - 0.0
07/10:30pm 28.9 33.7 25.1 80 2.7 NNW 9 15 5 8 1009.2 - 0.0
07/10:00pm 29.1 34.3 25.1 79 2.8 NNW 7 11 4 6 1009.1 - 0.0
07/09:30pm 29.1 33.9 25.1 79 2.8 NNW 9 13 5 7 1008.9 - 0.0
07/09:00pm 29.2 33.6 25.0 78 3.0 NNW 11 15 6 8 1008.5 1008.4 0.0
07/08:30pm 29.2 33.4 24.7 77 3.1 NW 11 15 6 8 1008.1 - 0.0
07/08:00pm 29.3 33.5 24.8 77 3.1 NW 11 17 6 9 1007.7 - 0.0
07/07:30pm 29.8 33.7 24.9 75 3.4 NW 13 22 7 12 1007.5 - 0.0
07/07:00pm 30.2 34.6 25.0 73 3.7 NNW 11 17 6 9 1007.1 - 0.0
07/06:30pm 30.3 34.5 24.7 72 3.9 NNW 11 17 6 9 1006.7 - 0.0
07/06:00pm 31.0 34.7 24.6 68 4.5 NNW 13 19 7 10 1006.3 1006.2 0.0
07/05:30pm 31.6 35.4 24.7 67 4.8 NNW 13 20 7 11 1005.9 - 0.0
07/05:00pm 31.9 35.9 25.0 67 4.9 NNW 13 26 7 14 1005.3 - 0.0
07/04:30pm 32.2 35.7 24.8 65 5.2 NNW 15 26 8 14 1005.2 - 0.0
07/04:00pm 32.3 34.9 23.3 59 6.2 NNW 15 26 8 14 1005.1 - 0.0
07/03:30pm 32.2 34.8 24.0 62 5.7 NNW 17 26 9 14 1005.6 - 0.0
07/03:00pm 32.5 36.0 24.8 64 5.4 N 15 24 8 13 1005.7 1005.6 0.0
07/02:30pm 32.7 36.0 24.5 62 5.8 NNW 15 24 8 13 1006.0 - 0.0
07/02:00pm 32.4 35.8 24.7 64 5.4 NW 15 26 8 14 1006.2 - 0.0
07/01:30pm 32.8 36.3 24.8 62 5.6 NW 15 22 8 12 1006.7 - 0.0
07/01:00pm 32.5 35.2 23.4 58 6.3 NNW 15 22 8 12 1007.0 - 0.0
07/12:30pm 32.8 35.8 24.0 60 6.1 NW 15 24 8 13 1007.3 - 0.0
07/12:00pm 32.7 36.1 24.7 62 5.6 WNW 15 20 8 11 1007.6 1007.5 0.0
07/11:30am 32.5 36.2 24.5 62 5.6 NW 13 22 7 12 1008.0 - 0.0
07/11:00am 32.0 35.9 24.3 63 5.4 WNW 11 17 6 9 1008.3 - 0.0
07/10:30am 31.6 35.0 23.4 61 5.7 WNW 11 17 6 9 1008.3 - 0.0
07/10:00am 30.9 34.6 24.5 68 4.5 WNW 13 20 7 11 1008.6 - 0.0
07/09:30am 30.5 34.7 25.3 74 3.7 W 13 19 7 10 1008.5 - 0.0
07/09:00am 30.1 35.0 25.8 78 3.1 WNW 11 15 6 8 1008.4 1008.3 35.0
07/08:30am 28.9 33.8 25.3 81 2.5 WNW 9 15 5 8 1008.3 - 35.0
07/08:00am 28.2 32.6 25.0 83 2.2 WNW 11 15 6 8 1008.0 - 35.0
07/07:30am 27.1 32.3 25.1 89 1.4 WNW 7 9 4 5 1007.9 - 35.0
07/07:00am 25.8 32.0 24.6 93 0.8 CALM 0 0 0 0 1007.7 - 35.0
07/06:30am 25.5 31.5 24.3 93 0.8 CALM 0 0 0 0 1007.6 - 35.0
07/06:00am 25.6 31.7 24.4 93 0.8 CALM 0 0 0 0 1007.4 1007.3 35.0
07/05:30am 25.5 31.5 24.3 93 0.8 CALM 0 0 0 0 1007.0 - 35.0
07/05:00am 25.6 31.6 24.2 92 1.0 CALM 0 0 0 0 1006.8 - 35.0
07/04:30am 25.6 31.6 24.2 92 1.0 CALM 0 0 0 0 1006.7 - 35.0
07/04:00am 25.6 30.3 24.0 91 1.1 S 6 7 3 4 1006.7 - 35.0
07/03:30am 25.5 30.3 24.1 92 1.0 S 6 7 3 4 1006.6 - 35.0
07/03:00am 25.7 31.7 24.3 92 1.0 CALM 0 0 0 0 1006.6 1006.5 35.0
07/02:30am 25.8 32.0 24.6 93 0.8 CALM 0 0 0 0 1006.7 - 35.0
07/02:00am 25.7 31.3 24.3 92 1.0 WNW 2 6 1 3 1006.8 - 35.0
07/01:30am 25.5 31.4 24.1 92 1.0 CALM 0 0 0 0 1006.9 - 35.0
07/01:00am 25.5 30.4 24.3 93 0.8 W 6 6 3 3 1007.0 - 35.0
07/12:30am 25.3 30.4 24.1 93 0.8 WSW 4 7 2 4 1007.3 - 35.0
07/12:00am 25.4 31.2 24.0 92 1.0 CALM 0 0 0 0 1007.8 1007.7 35.0
 
Date/Time
CST
Temp
°C
App
Temp
°C
Dew
Point
Rel
Hum
%
Delta-T
°C
Wind Press
QNH
hPa
Press
MSL
hPa
Rain
since 9 am
mm
Dir
 
Spd
km/h
Gust
km/h
Spd
kts
Gust
kts
06/11:30pm 25.5 31.2 23.7 90 1.2 CALM 0 0 0 0 1007.8 - 35.0
06/11:00pm 25.5 30.4 23.7 90 1.2 S 4 7 2 4 1007.7 - 35.0
06/10:30pm 25.3 29.8 23.9 92 1.0 SW 7 11 4 6 1007.4 - 35.0
06/10:00pm 25.3 29.8 23.7 91 1.1 SSW 6 7 3 4 1006.9 - 35.0
06/09:30pm 25.3 29.8 23.7 91 1.1 S 6 7 3 4 1006.7 - 35.0
06/09:00pm 25.3 29.4 23.9 92 1.0 SW 9 13 5 7 1006.4 1006.3 35.0
06/08:30pm 25.7 30.4 24.3 92 1.0 SW 7 13 4 7 1006.2 - 35.0
06/08:00pm 25.7 30.3 24.1 91 1.1 WSW 7 9 4 5 1006.1 - 34.8
06/07:30pm 26.0 30.5 24.0 89 1.4 NW 7 11 4 6 1006.1 - 34.2
06/07:00pm 25.7 29.6 23.6 88 1.4 NNW 9 17 5 9 1005.8 - 33.6
06/06:30pm 25.3 29.1 23.5 90 1.2 N 9 13 5 7 1005.6 - 33.0
06/06:00pm 24.9 27.5 23.3 91 1.1 NNW 15 22 8 12 1006.2 1006.1 32.8
06/05:30pm 25.0 26.0 22.9 88 1.4 WNW 22 28 12 15 1006.1 - 32.4
06/05:00pm 25.8 27.7 23.7 88 1.4 WNW 20 28 11 15 1005.5 - 32.4
06/04:30pm 25.6 28.2 23.3 87 1.6 N 15 22 8 12 1004.9 - 32.4
06/04:00pm 24.6 27.9 23.2 92 0.9 ENE 11 17 6 9 1005.2 - 31.4
06/03:30pm 24.7 24.5 22.0 85 1.8 SSW 26 41 14 22 1005.6 - 7.8
06/03:19pm 27.0 26.0 22.0 74 3.4 SSW 30 48 16 26 1004.7 - 1.4
06/03:16pm 28.4 26.1 21.2 65 4.8 SSW 35 48 19 26 1004.5 - 1.2
06/03:00pm 32.6 37.8 26.9 72 4.1 NNW 13 20 7 11 1004.4 1004.3 1.0
06/02:30pm 32.6 36.3 24.6 62 5.6 NW 13 20 7 11 1004.9 - 1.0
06/02:00pm 31.6 35.5 24.2 65 5.2 NNW 11 17 6 9 1005.3 - 1.0
06/01:30pm 32.5 36.7 24.8 64 5.4 WNW 11 17 6 9 1005.7 - 0.0
06/01:00pm 32.5 36.4 24.8 64 5.4 NW 13 20 7 11 1006.2 - 0.0
06/12:30pm 32.1 35.5 24.7 65 5.2 NW 15 22 8 12 1006.4 - 0.0
06/12:00pm 32.4 35.9 24.2 62 5.7 WNW 13 22 7 12 1006.7 1006.6 0.0
06/11:30am 31.5 34.1 24.6 67 4.8 NW 19 30 10 16 1007.0 - 0.0
06/11:00am 31.6 33.6 24.5 66 5.0 W 22 30 12 16 1007.3 - 0.0
06/10:30am 31.2 33.9 24.1 66 4.9 W 17 24 9 13 1007.4 - 0.0
06/10:00am 30.8 33.1 24.4 68 4.5 WNW 20 32 11 17 1007.7 - 0.0
06/09:30am 30.3 32.7 24.2 70 4.2 W 19 26 10 14 1007.6 - 0.0
06/09:00am 29.9 32.7 25.0 75 3.4 W 19 24 10 13 1007.6 1007.5 20.0
06/08:30am 29.0 31.6 24.6 77 3.1 W 19 26 10 14 1007.5 - 20.0
06/08:00am 28.1 31.9 24.7 82 2.4 W 13 17 7 9 1007.4 - 20.0
06/07:30am 27.3 31.2 24.9 87 1.7 W 13 17 7 9 1007.1 - 20.0
06/07:00am 27.0 31.5 25.2 90 1.3 W 11 15 6 8 1006.9 - 20.0
06/06:30am 26.8 31.9 25.0 90 1.3 WNW 7 11 4 6 1006.8 - 20.0
06/06:00am 26.9 32.0 24.9 89 1.4 WNW 7 9 4 5 1006.7 1006.6 20.0
06/05:30am 26.8 31.4 24.8 89 1.4 WNW 9 13 5 7 1006.4 - 20.0
06/05:00am 26.7 31.3 24.7 89 1.4 WNW 9 17 5 9 1006.2 - 20.0
06/04:30am 26.5 31.1 24.7 90 1.3 NW 9 13 5 7 1006.0 - 20.0
06/04:00am 26.5 30.7 24.7 90 1.3 WNW 11 19 6 10 1005.8 - 20.0
06/03:30am 26.4 30.5 24.6 90 1.2 NW 11 15 6 8 1005.9 - 20.0
06/03:00am 26.5 30.5 25.1 92 1.0 NW 13 15 7 8 1005.9 1005.8 20.0
06/02:30am 26.4 31.5 25.0 92 1.0 NW 7 11 4 6 1006.2 - 19.6
06/02:00am 26.4 31.8 25.2 93 0.8 W 6 9 3 5 1006.4 - 19.6
06/01:30am 26.0 32.2 24.6 92 1.0 CALM 0 6 0 3 1006.7 - 19.6
06/01:00am 26.0 32.0 24.8 93 0.8 WNW 2 6 1 3 1006.8 - 19.6
06/12:30am 25.7 31.7 24.3 92 1.0 CALM 0 6 0 3 1006.9 - 19.6
06/12:00am 25.5 31.4 24.1 92 1.0 CALM 0 7 0 4 1007.1 1007.0 19.6
 
Date/Time
CST
Temp
°C
App
Temp
°C
Dew
Point
Rel
Hum
%
Delta-T
°C
Wind Press
QNH
hPa
Press
MSL
hPa
Rain
since 9 am
mm
Dir
 
Spd
km/h
Gust
km/h
Spd
kts
Gust
kts
05/11:30pm 25.6 31.2 24.2 92 1.0 N 2 7 1 4 1007.4 - 19.6
05/11:00pm 25.5 30.1 24.1 92 1.0 NE 7 11 4 6 1007.5 - 19.6
05/10:30pm 25.5 29.7 24.1 92 1.0 NNE 9 17 5 9 1007.6 - 19.6
05/10:00pm 25.3 30.0 24.3 94 0.7 N 7 17 4 9 1007.7 - 19.6
05/09:30pm 25.0 29.2 24.1 95 0.6 NNE 9 13 5 7 1007.4 - 19.4
05/09:00pm 24.5 25.2 22.9 91 1.1 SE 24 33 13 18 1008.0 1007.9 12.2
05/08:30pm 27.4 27.7 23.0 77 3.0 ESE 26 39 14 21 1008.0 - 4.2
05/08:00pm 29.0 33.4 25.0 79 2.8 NNW 11 15 6 8 1006.8 - 4.2
05/07:30pm 29.0 33.4 25.0 79 2.8 NNW 11 15 6 8 1006.2 - 4.2
05/07:00pm 29.1 33.2 24.6 76 3.1 NNW 11 20 6 11 1005.9 - 4.2
05/06:30pm 29.4 33.2 24.7 76 3.3 NW 13 22 7 12 1005.6 - 4.2
05/06:00pm 29.5 33.7 24.8 76 3.3 NNW 11 20 6 11 1005.0 1004.9 4.2
05/05:30pm 29.6 34.2 25.3 77 3.0 N 11 19 6 10 1004.7 - 4.2
05/05:00pm 29.2 34.2 25.4 80 2.7 N 9 17 5 9 1004.6 - 4.2
05/04:30pm 27.9 32.3 25.1 85 2.0 N 11 17 6 9 1004.7 - 4.2
05/04:00pm 30.0 34.8 25.1 75 3.4 N 9 17 5 9 1005.0 - 0.0
05/03:30pm 30.8 33.4 24.0 67 4.7 NNW 17 24 9 13 1004.8 - 0.0
05/03:00pm 31.1 33.5 23.7 64 5.1 N 17 26 9 14 1004.9 1004.8 0.0
05/02:30pm 32.0 35.7 24.6 65 5.2 NNE 13 19 7 10 1004.8 - 0.0
05/02:00pm 33.9 37.8 23.6 55 7.2 SSE 9 15 5 8 1005.0 - 0.0
05/01:30pm 33.8 37.4 23.8 56 7.0 W 11 20 6 11 1005.1 - 0.0
05/01:00pm 33.3 36.4 23.6 56 6.7 SW 13 20 7 11 1005.3 - 0.0
05/12:30pm 32.7 36.4 23.3 57 6.5 WSW 9 17 5 9 1005.8 - 0.0
05/12:00pm 32.3 35.3 23.3 59 6.2 SW 13 20 7 11 1006.2 1006.1 0.0
05/11:30am 32.0 35.3 23.8 62 5.7 WSW 13 20 7 11 1006.9 - 0.0
05/11:00am 31.0 33.5 23.1 63 5.4 WSW 15 22 8 12 1007.4 - 0.0
05/10:30am 30.0 32.9 23.2 67 4.7 W 13 20 7 11 1007.7 - 0.0
05/10:00am 28.4 31.4 23.3 74 3.5 WSW 13 20 7 11 1007.9 - 0.0

Other Formats:

Comma delimited format used in spreadsheet applications
http://www.bom.gov.au/fwo/IDD60801/IDD60801.94140.axf

JavaScript Object Notation format (JSON) in row-major order
http://www.bom.gov.au/fwo/IDD60801/IDD60801.94140.json